Time;durP1;ratioP1;P1;durP2;ratioP2;P2;SDS_P1;SDS_P2;PMS_P1;PMS_P2;Temp;Humidity;BMP_temperature;BMP_pressure;BME280_temperature;BME280_humidity;BME280_pressure;Samples;Min_cycle;Max_cycle;Signal;HPM_P1;HPM_P2
2021/09/29 00:01:03;;;;;;;3.60;1.10;;;11.40;96.70;;;;;;5073231;28;20035;-80
2021/09/29 00:03:29;;;;;;;5.45;1.40;;;11.30;96.50;;;;;;5058517;28;20038;-80
2021/09/29 00:05:54;;;;;;;8.50;1.75;;;11.40;96.50;;;;;;5073344;28;20387;-79
2021/09/29 00:08:20;;;;;;;6.00;1.40;;;11.30;96.50;;;;;;5057655;28;20070;-79
2021/09/29 00:10:45;;;;;;;5.13;1.83;;;11.20;96.90;;;;;;5073188;28;20027;-80
2021/09/29 00:13:11;;;;;;;3.10;1.50;;;11.30;96.50;;;;;;5060725;28;20034;-80
2021/09/29 00:15:36;;;;;;;4.15;1.33;;;11.40;96.70;;;;;;5059064;28;20027;-79
2021/09/29 00:18:02;;;;;;;6.43;1.70;;;11.30;96.50;;;;;;5074068;28;20024;-79
2021/09/29 00:20:28;;;;;;;3.20;1.30;;;11.30;96.60;;;;;;5053288;28;20123;-79
2021/09/29 00:22:53;;;;;;;4.78;1.23;;;11.20;96.50;;;;;;5070117;28;20042;-79
2021/09/29 00:25:19;;;;;;;4.72;1.10;;;11.10;96.30;;;;;;5069480;28;20403;-79
2021/09/29 00:27:45;;;;;;;7.57;1.60;;;11.10;96.40;;;;;;5055249;28;20462;-80
2021/09/29 00:30:11;;;;;;;4.88;1.48;;;11.30;96.60;;;;;;5063136;28;20103;-79
2021/09/29 00:32:40;;;;;;;7.53;1.83;;;11.10;97.40;;;;;;5069819;28;20024;-79
2021/09/29 00:35:06;;;;;;;4.13;1.20;;;11.20;97.00;;;;;;5060820;28;20378;-80
2021/09/29 00:37:32;;;;;;;3.92;1.10;;;11.30;96.50;;;;;;5064522;28;20040;-79
2021/09/29 00:39:57;;;;;;;1.77;0.90;;;11.30;96.60;;;;;;5088788;28;20193;-80
2021/09/29 00:42:23;;;;;;;4.22;1.15;;;11.40;96.30;;;;;;5069493;28;20032;-80
2021/09/29 00:44:50;;;;;;;1.67;0.98;;;11.40;96.40;;;;;;5088323;28;20032;-80
2021/09/29 00:47:17;;;;;;;7.60;1.38;;;11.50;96.20;;;;;;5058152;28;20082;-79
2021/09/29 00:49:43;;;;;;;5.60;1.75;;;11.40;96.20;;;;;;5089677;28;20152;-80
2021/09/29 00:52:08;;;;;;;8.73;1.83;;;11.40;96.40;;;;;;5089788;28;20060;-80
2021/09/29 00:54:34;;;;;;;3.50;1.20;;;11.50;96.70;;;;;;5089050;28;20582;-79
2021/09/29 00:56:59;;;;;;;6.57;1.50;;;11.30;96.60;;;;;;5067203;28;20079;-80
2021/09/29 00:59:25;;;;;;;8.52;1.75;;;11.30;96.80;;;;;;5089496;28;20031;-79
2021/09/29 01:01:51;;;;;;;3.55;1.25;;;11.30;97.20;;;;;;5075587;28;20036;-79
2021/09/29 01:04:17;;;;;;;3.17;1.10;;;11.20;97.00;;;;;;5056104;28;20039;-80
2021/09/29 01:06:57;;;;;;;6.70;1.90;;;11.20;97.20;;;;;;5055683;28;20038;-79
2021/09/29 01:09:54;;;;;;;3.95;1.15;;;11.20;96.90;;;;;;5087222;28;20096;-79
2021/09/29 01:12:32;;;;;;;6.18;1.25;;;11.20;97.10;;;;;;5057073;28;20494;-79
2021/09/29 01:15:13;;;;;;;15.38;1.80;;;11.20;96.90;;;;;;5089523;28;20028;-79
2021/09/29 01:17:41;;;;;;;4.25;1.42;;;11.10;97.70;;;;;;5071758;28;20517;-79
2021/09/29 01:20:10;;;;;;;5.22;1.30;;;11.00;97.50;;;;;;5059967;28;20419;-79
2021/09/29 01:22:58;;;;;;;8.98;1.65;;;11.00;97.30;;;;;;5086072;28;20072;-80
2021/09/29 01:25:53;;;;;;;6.35;1.65;;;11.10;97.20;;;;;;5078955;28;20036;-79
2021/09/29 01:28:20;;;;;;;3.15;1.27;;;10.90;97.90;;;;;;5033318;28;20418;-80
2021/09/29 01:30:45;;;;;;;5.60;1.10;;;11.10;97.20;;;;;;5054980;28;20065;-79
2021/09/29 01:33:11;;;;;;;7.13;1.50;;;11.10;97.10;;;;;;5069396;28;20028;-80
2021/09/29 01:35:36;;;;;;;5.57;1.42;;;11.20;96.80;;;;;;5071263;28;20024;-79
2021/09/29 01:38:02;;;;;;;6.38;1.17;;;11.10;97.10;;;;;;5089547;28;20035;-80
2021/09/29 01:40:28;;;;;;;7.68;1.58;;;11.20;97.20;;;;;;5071036;28;20100;-79
2021/09/29 01:42:54;;;;;;;4.50;1.05;;;11.10;97.00;;;;;;5068729;28;21285;-79
2021/09/29 01:45:19;;;;;;;10.48;1.75;;;11.10;96.90;;;;;;5057039;28;20107;-79
2021/09/29 01:47:47;;;;;;;6.20;1.20;;;11.10;97.10;;;;;;5069954;28;20700;-79
2021/09/29 01:50:12;;;;;;;10.05;1.65;;;11.20;96.80;;;;;;5071091;28;20089;-79
2021/09/29 01:52:41;;;;;;;2.58;1.05;;;11.20;97.10;;;;;;5071635;28;20487;-79
2021/09/29 01:55:06;;;;;;;4.68;1.27;;;11.20;97.00;;;;;;5061670;28;20027;-81
2021/09/29 01:57:34;;;;;;;4.57;1.27;;;11.30;96.90;;;;;;5055665;28;20035;-79
2021/09/29 01:59:59;;;;;;;4.00;1.00;;;11.30;96.60;;;;;;5053832;28;20024;-79
2021/09/29 02:02:25;;;;;;;6.10;1.23;;;11.20;97.00;;;;;;5053042;28;20119;-79
2021/09/29 02:04:51;;;;;;;4.93;1.65;;;11.30;96.70;;;;;;5087585;28;20047;-79
2021/09/29 02:07:17;;;;;;;3.75;1.15;;;11.20;97.10;;;;;;5087142;28;20019;-78
2021/09/29 02:09:43;;;;;;;4.47;1.63;;;11.30;97.00;;;;;;5051383;28;20420;-79
2021/09/29 02:12:09;;;;;;;9.90;1.52;;;11.30;96.90;;;;;;5070045;28;20023;-79
2021/09/29 02:14:34;;;;;;;6.18;1.02;;;11.20;97.00;;;;;;5069705;28;20115;-81
2021/09/29 02:17:00;;;;;;;3.63;1.23;;;11.20;97.00;;;;;;5053417;28;20052;-78
2021/09/29 02:19:26;;;;;;;4.45;1.17;;;11.20;97.10;;;;;;5066586;28;20024;-78
2021/09/29 02:21:51;;;;;;;6.18;1.55;;;11.30;97.00;;;;;;5087116;28;20521;-78
2021/09/29 02:24:17;;;;;;;15.02;4.13;;;11.20;97.20;;;;;;5059024;28;20027;-78
2021/09/29 02:26:43;;;;;;;5.03;1.35;;;11.30;96.90;;;;;;5071062;28;20036;-79
2021/09/29 02:29:09;;;;;;;6.05;1.40;;;11.40;97.30;;;;;;5063789;28;20501;-79
2021/09/29 02:31:34;;;;;;;5.05;1.00;;;11.30;96.90;;;;;;5052307;28;20303;-78
2021/09/29 02:34:00;;;;;;;1.27;0.60;;;11.30;97.00;;;;;;5068722;28;20032;-80
2021/09/29 02:36:25;;;;;;;9.23;1.00;;;11.30;96.90;;;;;;5069577;28;20023;-79
2021/09/29 02:38:51;;;;;;;4.00;1.17;;;11.30;97.00;;;;;;5055691;28;20036;-80
2021/09/29 02:41:17;;;;;;;4.82;1.23;;;11.40;96.80;;;;;;5053666;28;20510;-79
2021/09/29 02:43:43;;;;;;;5.80;1.50;;;11.40;96.80;;;;;;5052002;28;20363;-78
2021/09/29 02:46:08;;;;;;;5.43;1.20;;;11.40;96.80;;;;;;5076527;28;20027;-79
2021/09/29 02:48:34;;;;;;;7.13;1.20;;;11.40;96.90;;;;;;5071482;28;20032;-78
2021/09/29 02:50:59;;;;;;;5.30;1.13;;;11.30;96.70;;;;;;5064675;28;20024;-79
2021/09/29 02:53:29;;;;;;;1.70;0.93;;;11.40;96.80;;;;;;5055995;28;20118;-79
2021/09/29 02:56:01;;;;;;;5.85;1.20;;;11.40;96.80;;;;;;5051612;28;20043;-79
2021/09/29 02:58:27;;;;;;;9.13;2.55;;;11.50;96.70;;;;;;5069343;28;20028;-78
2021/09/29 03:00:53;;;;;;;6.50;1.40;;;11.40;96.70;;;;;;5050242;28;20039;-78
2021/09/29 03:03:20;;;;;;;5.80;1.45;;;11.40;96.80;;;;;;5055646;28;20032;-79
2021/09/29 03:05:45;;;;;;;6.82;2.10;;;11.50;96.80;;;;;;5052373;28;20613;-78
2021/09/29 03:08:11;;;;;;;9.18;2.28;;;11.40;96.80;;;;;;5053720;28;20023;-78
2021/09/29 03:10:38;;;;;;;6.25;2.10;;;11.50;96.90;;;;;;5070171;28;20028;-79
2021/09/29 03:13:04;;;;;;;8.60;2.20;;;11.40;96.90;;;;;;5067751;28;20249;-79
2021/09/29 03:15:30;;;;;;;4.00;1.38;;;11.40;97.20;;;;;;5053111;28;20040;-80
2021/09/29 03:17:55;;;;;;;6.82;1.70;;;11.40;96.80;;;;;;5074079;28;20483;-79
2021/09/29 03:20:21;;;;;;;5.97;2.00;;;11.40;96.80;;;;;;5072900;28;20479;-79
2021/09/29 03:22:47;;;;;;;6.43;2.03;;;11.40;96.80;;;;;;5072268;28;20513;-80
2021/09/29 03:25:14;;;;;;;2.95;1.70;;;11.40;97.10;;;;;;5060831;28;20038;-80
2021/09/29 03:27:39;;;;;;;3.40;2.03;;;11.40;96.60;;;;;;5071075;28;20069;-79
2021/09/29 03:30:05;;;;;;;4.10;1.42;;;11.50;96.80;;;;;;5057523;28;20471;-80
2021/09/29 03:32:31;;;;;;;5.78;2.33;;;11.50;96.60;;;;;;5090808;28;20511;-80
2021/09/29 03:34:57;;;;;;;5.03;2.00;;;11.40;97.10;;;;;;5059756;28;20111;-80
2021/09/29 03:37:22;;;;;;;3.85;1.50;;;11.40;96.60;;;;;;5058590;28;20248;-79
2021/09/29 03:39:48;;;;;;;7.65;1.98;;;11.40;96.60;;;;;;5070103;28;20062;-79
2021/09/29 03:42:13;;;;;;;5.72;2.17;;;11.50;96.80;;;;;;5068631;28;20051;-80
2021/09/29 03:44:39;;;;;;;4.18;1.80;;;11.50;96.60;;;;;;5053103;28;20188;-79
2021/09/29 03:47:04;;;;;;;4.22;2.30;;;11.50;97.00;;;;;;5060035;28;20074;-79
2021/09/29 03:49:30;;;;;;;4.05;2.40;;;11.50;96.90;;;;;;5071882;28;20035;-80
2021/09/29 03:51:55;;;;;;;6.80;2.00;;;11.50;96.90;;;;;;5057416;28;20046;-79
2021/09/29 03:54:21;;;;;;;4.03;1.88;;;11.50;96.80;;;;;;5052722;28;20027;-80
2021/09/29 03:56:46;;;;;;;3.95;1.83;;;11.60;96.50;;;;;;5070836;28;20032;-80
2021/09/29 03:59:12;;;;;;;7.20;1.98;;;11.60;96.50;;;;;;5073953;28;20031;-80
2021/09/29 04:01:38;;;;;;;5.85;2.00;;;11.50;96.60;;;;;;5054965;28;20034;-80
2021/09/29 04:04:04;;;;;;;4.32;1.98;;;11.50;96.70;;;;;;5062472;28;20024;-80
2021/09/29 04:06:29;;;;;;;5.85;2.88;;;11.60;96.60;;;;;;5072061;28;20154;-80
2021/09/29 04:08:55;;;;;;;4.65;1.58;;;11.50;96.90;;;;;;5070350;28;20410;-79
2021/09/29 04:11:21;;;;;;;5.28;2.30;;;11.60;96.60;;;;;;5053669;28;20505;-81
2021/09/29 04:13:47;;;;;;;5.03;1.85;;;11.60;96.50;;;;;;5058684;28;20036;-81
2021/09/29 04:16:12;;;;;;;4.88;1.65;;;11.60;96.80;;;;;;5064118;28;20066;-81
2021/09/29 04:18:38;;;;;;;3.47;1.58;;;11.50;96.70;;;;;;5090293;28;20410;-78
2021/09/29 04:21:04;;;;;;;8.98;2.00;;;11.60;96.50;;;;;;5055844;28;20261;-81
2021/09/29 04:23:30;;;;;;;5.03;1.88;;;11.50;96.60;;;;;;5070561;28;20031;-79
2021/09/29 04:25:55;;;;;;;8.77;2.38;;;11.60;96.70;;;;;;5057418;28;20032;-79
2021/09/29 04:28:24;;;;;;;3.13;1.83;;;11.60;96.70;;;;;;5057367;28;20399;-81
2021/09/29 04:30:50;;;;;;;7.38;2.35;;;11.60;96.60;;;;;;5072058;28;20034;-80
2021/09/29 04:33:15;;;;;;;3.97;2.05;;;11.60;96.80;;;;;;5053685;28;20031;-78
2021/09/29 04:35:41;;;;;;;4.80;2.03;;;11.50;96.90;;;;;;5073093;28;20474;-78
2021/09/29 04:38:07;;;;;;;4.70;1.80;;;11.50;96.80;;;;;;5068212;28;20035;-79
2021/09/29 04:40:32;;;;;;;7.65;2.38;;;11.50;96.90;;;;;;5073800;28;20394;-81
2021/09/29 04:42:58;;;;;;;7.15;1.98;;;11.50;97.00;;;;;;5073104;28;20035;-81
2021/09/29 04:45:23;;;;;;;8.13;2.33;;;11.50;97.00;;;;;;5058203;28;20421;-79
2021/09/29 04:47:49;;;;;;;6.20;2.13;;;11.40;96.90;;;;;;5075398;28;20028;-79
2021/09/29 04:50:14;;;;;;;5.18;1.80;;;11.40;96.90;;;;;;5073763;28;20076;-79
2021/09/29 04:52:40;;;;;;;7.18;2.22;;;11.50;96.90;;;;;;5053491;28;20100;-79
2021/09/29 04:55:05;;;;;;;10.93;2.33;;;11.50;97.00;;;;;;5078039;28;20067;-79
2021/09/29 04:57:32;;;;;;;6.28;2.47;;;11.40;97.00;;;;;;5057790;28;20081;-79
2021/09/29 04:59:58;;;;;;;10.02;2.33;;;11.40;97.00;;;;;;5087962;28;20031;-79
2021/09/29 05:02:24;;;;;;;4.78;1.77;;;11.40;96.90;;;;;;5072501;28;20020;-78
2021/09/29 05:04:50;;;;;;;4.53;1.77;;;11.30;96.90;;;;;;5068775;28;20537;-79
2021/09/29 05:07:20;;;;;;;5.70;2.20;;;11.30;96.90;;;;;;5072226;28;20399;-79
2021/09/29 05:09:46;;;;;;;8.52;2.22;;;11.40;97.10;;;;;;5052665;28;20403;-79
2021/09/29 05:12:29;;;;;;;9.20;2.10;;;11.40;97.20;;;;;;5057429;28;20026;-79
2021/09/29 05:14:55;;;;;;;7.13;2.45;;;11.30;97.00;;;;;;5054469;28;20032;-80
2021/09/29 05:17:20;;;;;;;6.63;2.15;;;11.40;97.00;;;;;;5062228;28;20031;-79
2021/09/29 05:19:46;;;;;;;7.22;2.63;;;11.30;97.00;;;;;;5068505;28;20027;-80
2021/09/29 05:22:12;;;;;;;5.18;2.33;;;11.30;97.20;;;;;;5066429;28;20035;-79
2021/09/29 05:24:37;;;;;;;6.18;2.55;;;11.40;97.20;;;;;;5060940;28;20032;-79
2021/09/29 05:27:03;;;;;;;3.15;2.13;;;11.40;97.20;;;;;;5054287;28;20066;-80
2021/09/29 05:29:29;;;;;;;7.03;3.67;;;11.30;97.20;;;;;;5070743;28;20046;-79
2021/09/29 05:31:55;;;;;;;5.70;2.30;;;11.30;97.20;;;;;;5068923;28;20115;-79
2021/09/29 05:34:24;;;;;;;3.55;2.00;;;11.40;97.20;;;;;;5070239;28;20031;-80
2021/09/29 05:36:52;;;;;;;9.00;2.22;;;11.30;97.10;;;;;;5060492;28;20019;-79
2021/09/29 05:39:18;;;;;;;4.32;2.22;;;11.30;97.20;;;;;;5089730;28;20031;-79
2021/09/29 05:41:43;;;;;;;6.40;2.60;;;11.30;97.10;;;;;;5076727;28;20031;-79
2021/09/29 05:44:09;;;;;;;5.70;2.22;;;11.30;97.30;;;;;;5073839;28;20107;-79
2021/09/29 05:46:35;;;;;;;5.90;2.58;;;11.30;97.20;;;;;;5072983;28;20040;-80
2021/09/29 05:49:01;;;;;;;3.88;2.33;;;11.40;97.20;;;;;;5058546;28;20423;-80
2021/09/29 05:51:26;;;;;;;5.35;2.00;;;11.40;97.30;;;;;;5058900;28;20027;-80
2021/09/29 05:53:52;;;;;;;8.45;2.95;;;11.40;97.10;;;;;;5067433;28;20028;-80
2021/09/29 05:56:17;;;;;;;6.60;2.72;;;11.40;97.50;;;;;;5073031;28;20240;-80
2021/09/29 05:58:43;;;;;;;7.63;2.50;;;11.50;97.40;;;;;;5057041;28;20032;-80
2021/09/29 06:01:08;;;;;;;4.43;2.30;;;11.50;97.30;;;;;;5073783;28;20024;-80
2021/09/29 06:03:34;;;;;;;5.40;2.00;;;11.60;97.10;;;;;;5070194;28;20020;-79
2021/09/29 06:05:59;;;;;;;6.65;2.33;;;11.50;97.10;;;;;;5067467;28;20496;-79
2021/09/29 06:08:26;;;;;;;5.72;1.95;;;11.70;97.10;;;;;;5058161;28;20032;-79
2021/09/29 06:10:52;;;;;;;2.67;1.73;;;11.80;97.00;;;;;;5052496;28;20513;-79
2021/09/29 06:13:19;;;;;;;4.80;2.28;;;11.80;96.90;;;;;;5053833;28;20107;-78
2021/09/29 06:15:45;;;;;;;7.20;2.30;;;11.90;96.80;;;;;;5052670;28;20035;-78
2021/09/29 06:18:14;;;;;;;6.60;2.30;;;11.90;96.80;;;;;;5073035;28;20040;-78
2021/09/29 06:20:47;;;;;;;5.60;2.38;;;12.00;97.00;;;;;;5072683;28;20044;-79
2021/09/29 06:23:13;;;;;;;6.78;2.17;;;12.00;96.80;;;;;;5059406;28;20028;-78
2021/09/29 06:25:39;;;;;;;10.98;2.25;;;12.20;96.80;;;;;;5073285;28;20050;-79
2021/09/29 06:28:04;;;;;;;3.13;1.88;;;12.20;96.60;;;;;;5038355;28;20032;-79
2021/09/29 06:30:30;;;;;;;4.15;2.10;;;12.30;96.60;;;;;;5085214;28;20030;-79
2021/09/29 06:32:56;;;;;;;5.70;2.55;;;12.40;96.70;;;;;;5066806;28;20031;-79
2021/09/29 06:35:21;;;;;;;6.03;2.22;;;12.40;96.50;;;;;;5053011;28;20028;-79
2021/09/29 06:37:47;;;;;;;6.75;2.20;;;12.50;96.50;;;;;;5072820;28;20494;-78
2021/09/29 06:40:17;;;;;;;2.78;1.65;;;12.60;96.30;;;;;;5069568;28;20099;-79
2021/09/29 06:42:42;;;;;;;3.97;1.70;;;12.60;96.20;;;;;;5065015;28;20028;-79
2021/09/29 06:45:08;;;;;;;3.47;1.70;;;12.60;96.10;;;;;;5060734;28;20035;-79
2021/09/29 06:47:35;;;;;;;6.75;2.00;;;12.60;96.60;;;;;;5070144;28;20462;-79
2021/09/29 06:50:01;;;;;;;5.03;2.60;;;12.60;97.30;;;;;;5068609;28;20035;-79
2021/09/29 06:52:27;;;;;;;4.70;1.98;;;12.60;97.50;;;;;;5072076;28;20032;-80
2021/09/29 06:54:52;;;;;;;2.88;1.80;;;12.60;97.20;;;;;;5053258;28;20101;-80
2021/09/29 06:57:18;;;;;;;5.53;2.17;;;12.60;97.30;;;;;;5077513;28;20035;-81
2021/09/29 06:59:43;;;;;;;4.70;2.10;;;12.60;97.70;;;;;;5076460;28;20503;-80
2021/09/29 07:02:09;;;;;;;7.03;2.30;;;12.60;97.60;;;;;;5076427;28;20038;-81
2021/09/29 07:04:34;;;;;;;7.05;2.40;;;12.60;97.80;;;;;;5076378;28;20110;-81
2021/09/29 07:07:00;;;;;;;4.47;2.47;;;12.60;98.00;;;;;;5063060;28;20368;-80
2021/09/29 07:09:25;;;;;;;7.57;2.45;;;12.50;98.30;;;;;;5079656;28;20040;-80
2021/09/29 07:11:51;;;;;;;6.47;1.92;;;12.50;97.80;;;;;;5056869;28;20036;-80
2021/09/29 07:14:19;;;;;;;7.57;3.08;;;12.50;98.10;;;;;;5060701;28;20418;-79
2021/09/29 07:16:45;;;;;;;4.03;2.13;;;12.50;98.30;;;;;;5077391;28;20024;-80
2021/09/29 07:19:10;;;;;;;7.90;2.58;;;12.50;98.30;;;;;;5064243;28;20514;-81
2021/09/29 07:21:37;;;;;;;3.53;2.00;;;12.50;98.30;;;;;;5076389;28;20042;-81
2021/09/29 07:24:04;;;;;;;4.20;2.47;;;12.50;98.20;;;;;;5059457;28;20055;-80
2021/09/29 07:26:29;;;;;;;5.15;2.45;;;12.50;98.60;;;;;;5058144;28;20036;-81
2021/09/29 07:28:57;;;;;;;5.78;2.42;;;12.50;98.50;;;;;;5094614;28;20360;-81
2021/09/29 07:31:22;;;;;;;5.70;2.95;;;12.50;98.60;;;;;;5060567;28;20199;-81
2021/09/29 07:33:48;;;;;;;6.85;2.78;;;12.50;98.90;;;;;;5076595;28;20077;-81
2021/09/29 07:36:14;;;;;;;7.07;2.88;;;12.50;98.70;;;;;;5060403;28;20032;-80
2021/09/29 07:38:42;;;;;;;4.78;2.92;;;12.50;98.80;;;;;;5075251;28;20040;-81
2021/09/29 07:41:08;;;;;;;5.38;2.38;;;12.50;98.80;;;;;;5094176;28;20316;-80
2021/09/29 07:43:33;;;;;;;7.13;2.97;;;12.60;98.80;;;;;;5068575;28;20091;-82
2021/09/29 07:45:59;;;;;;;4.40;2.63;;;12.60;99.00;;;;;;5087959;28;20024;-80
2021/09/29 07:48:24;;;;;;;7.63;2.50;;;12.60;99.10;;;;;;5063594;28;20058;-81
2021/09/29 07:50:50;;;;;;;5.60;2.30;;;12.50;99.10;;;;;;5071721;28;20031;-80
2021/09/29 07:53:18;;;;;;;6.05;2.65;;;12.60;99.00;;;;;;5081300;28;20051;-80
2021/09/29 07:55:43;;;;;;;8.00;2.78;;;12.60;99.30;;;;;;5075568;28;20039;-80
2021/09/29 07:58:09;;;;;;;8.98;2.55;;;12.70;99.20;;;;;;5068712;28;20368;-80
2021/09/29 08:00:34;;;;;;;6.32;2.28;;;12.70;99.30;;;;;;5092663;28;20027;-81
2021/09/29 08:03:00;;;;;;;4.28;2.13;;;12.80;99.40;;;;;;5059938;28;20546;-80
2021/09/29 08:05:26;;;;;;;4.93;2.03;;;12.80;99.00;;;;;;5083285;28;20490;-82
2021/09/29 08:07:51;;;;;;;9.95;3.10;;;12.90;99.40;;;;;;5073517;28;20020;-81
2021/09/29 08:10:18;;;;;;;6.55;3.47;;;12.90;99.40;;;;;;5073258;28;20020;-81
2021/09/29 08:12:43;;;;;;;5.85;2.35;;;12.90;99.50;;;;;;5071089;28;20057;-82
2021/09/29 08:15:13;;;;;;;3.47;2.15;;;12.90;99.50;;;;;;5077260;28;20475;-81
2021/09/29 08:17:45;;;;;;;5.63;2.35;;;12.90;99.30;;;;;;5055793;28;20110;-82
2021/09/29 08:20:11;;;;;;;10.23;3.25;;;13.00;99.40;;;;;;5061309;28;20336;-81
2021/09/29 08:22:38;;;;;;;4.85;2.13;;;13.00;99.90;;;;;;5048091;28;20442;-83
2021/09/29 08:25:36;;;;;;;6.88;3.10;;;12.90;99.30;;;;;;5048178;28;20032;-82
2021/09/29 08:28:25;;;;;;;6.93;2.67;;;13.00;99.90;;;;;;5067751;28;20025;-81
2021/09/29 08:31:09;;;;;;;8.95;3.40;;;13.10;99.70;;;;;;5064753;28;20025;-82
2021/09/29 08:36:08;;;;;;;8.77;2.40;;;13.20;99.60;;;;;;5061016;28;20127;-81
2021/09/29 08:38:39;;;;;;;6.65;2.35;;;13.20;99.40;;;;;;5061842;28;20038;-83
2021/09/29 08:41:23;;;;;;;9.82;3.95;;;13.20;99.10;;;;;;5070927;28;20090;-83
2021/09/29 08:44:13;;;;;;;8.65;2.95;;;13.20;99.40;;;;;;5066785;28;20494;-83
2021/09/29 08:50:08;;;;;;;10.18;2.95;;;13.20;99.50;;;;;;5048467;28;20104;-82
2021/09/29 08:54:53;;;;;;;10.43;3.80;;;13.20;99.90;;;;;;5075066;28;20399;-83
2021/09/29 08:57:51;;;;;;;8.52;3.08;;;13.20;99.90;;;;;;5056241;28;20048;-82
2021/09/29 09:16:45;;;;;;;7.45;2.33;;;13.30;99.40;;;;;;5091397;28;20039;-82
2021/09/29 09:19:13;;;;;;;4.53;1.85;;;13.30;99.50;;;;;;5052783;28;20418;-82
2021/09/29 09:21:52;;;;;;;6.72;2.55;;;13.30;99.40;;;;;;5083820;28;20054;-81
2021/09/29 09:24:27;;;;;;;6.15;2.15;;;13.30;99.80;;;;;;5052613;28;20047;-81
2021/09/29 09:27:03;;;;;;;5.05;2.30;;;13.30;99.40;;;;;;5066388;28;20082;-82
2021/09/29 09:29:30;;;;;;;6.35;2.35;;;13.30;99.50;;;;;;5062624;28;20028;-82
2021/09/29 09:32:08;;;;;;;4.97;1.95;;;13.30;99.40;;;;;;5069344;28;20036;-81
2021/09/29 09:34:34;;;;;;;4.65;1.88;;;13.30;99.50;;;;;;5053561;28;20031;-81
2021/09/29 09:37:00;;;;;;;6.32;2.17;;;13.40;99.70;;;;;;5051165;28;20032;-82
2021/09/29 09:39:27;;;;;;;5.13;2.03;;;13.30;99.80;;;;;;5055690;28;20028;-82
2021/09/29 09:41:57;;;;;;;8.43;2.97;;;13.40;99.80;;;;;;5072121;28;20519;-81
2021/09/29 09:44:34;;;;;;;5.32;2.20;;;13.40;99.90;;;;;;5064205;28;20070;-81
2021/09/29 09:47:06;;;;;;;4.72;2.33;;;13.40;99.60;;;;;;5071722;28;20561;-81
2021/09/29 09:49:52;;;;;;;6.10;2.05;;;13.40;99.70;;;;;;5071299;28;20035;-81
2021/09/29 09:52:40;;;;;;;1.92;0.88;;;13.40;99.70;;;;;;5063098;28;20036;-81
2021/09/29 09:55:10;;;;;;;1.98;1.50;;;13.30;99.80;;;;;;5087489;28;20032;-81
2021/09/29 09:57:39;;;;;;;4.90;1.65;;;13.30;99.90;;;;;;5086407;28;20506;-81
2021/09/29 10:00:06;;;;;;;7.70;1.52;;;13.20;99.90;;;;;;5060295;28;20059;-81
2021/09/29 10:02:48;;;;;;;3.58;1.60;;;13.30;99.90;;;;;;5057829;28;20031;-81
2021/09/29 10:05:15;;;;;;;0.88;0.75;;;13.30;99.90;;;;;;5055840;28;20024;-82
2021/09/29 10:07:42;;;;;;;1.30;1.20;;;13.30;99.90;;;;;;5060467;28;20127;-81
2021/09/29 10:24:03;;;;;;;0.47;0.32;;;13.40;99.40;;;;;;5077361;28;20046;-85
2021/09/29 10:26:28;;;;;;;1.08;0.47;;;13.40;99.40;;;;;;5060670;28;20032;-84
2021/09/29 10:29:07;;;;;;;0.28;0.25;;;13.30;99.50;;;;;;5057138;28;20042;-85
2021/09/29 10:31:56;;;;;;;4.00;0.65;;;13.30;99.80;;;;;;5074924;28;20020;-85
2021/09/29 10:51:10;;;;;;;3.03;0.40;;;13.30;99.50;;;;;;5074435;28;20047;-85
2021/09/29 11:28:58;;;;;;;1.17;0.57;;;13.50;99.30;;;;;;5076345;28;20080;-85
2021/09/29 11:31:26;;;;;;;1.10;0.47;;;13.60;99.40;;;;;;5073587;28;20168;-85
2021/09/29 11:34:10;;;;;;;0.70;0.52;;;13.60;99.30;;;;;;5054239;28;20032;-85
2021/09/29 11:48:54;;;;;;;3.00;1.50;;;13.40;99.50;;;;;;5088670;28;20033;-85
2021/09/29 12:08:49;;;;;;;1.50;1.40;;;12.60;99.90;;;;;;5082025;28;20167;-86
2021/09/29 12:11:22;;;;;;;2.58;0.80;;;12.40;99.90;;;;;;5077459;28;20031;-85
2021/09/29 12:13:56;;;;;;;1.77;0.60;;;12.30;99.90;;;;;;5071727;28;20445;-85
2021/09/29 12:16:40;;;;;;;2.03;1.10;;;12.30;99.90;;;;;;5056115;28;20078;-85
2021/09/29 12:19:08;;;;;;;1.73;1.10;;;12.30;99.90;;;;;;5066019;28;20395;-85
2021/09/29 12:21:41;;;;;;;1.15;1.02;;;12.30;99.90;;;;;;5073418;28;20059;-85
2021/09/29 12:24:08;;;;;;;1.15;0.75;;;12.40;99.90;;;;;;5071639;28;20035;-84
2021/09/29 12:26:49;;;;;;;3.78;1.42;;;12.50;99.90;;;;;;5054344;28;20475;-85
2021/09/29 12:29:21;;;;;;;2.28;1.75;;;12.60;99.90;;;;;;5089107;28;20118;-85
2021/09/29 12:31:53;;;;;;;3.85;2.20;;;12.70;99.90;;;;;;5083336;28;20040;-85
2021/09/29 12:34:27;;;;;;;2.28;1.63;;;12.80;99.90;;;;;;5051642;28;20408;-85
2021/09/29 12:36:53;;;;;;;2.85;2.10;;;12.90;99.90;;;;;;5056828;28;20043;-85
2021/09/29 12:39:21;;;;;;;3.00;2.45;;;13.00;99.90;;;;;;5065445;28;20032;-85
2021/09/29 12:41:51;;;;;;;0.57;0.40;;;13.10;99.90;;;;;;5070761;28;20090;-84
2021/09/29 12:44:18;;;;;;;3.88;1.60;;;13.10;99.90;;;;;;5081721;28;20384;-84
2021/09/29 12:47:02;;;;;;;4.45;1.00;;;13.20;99.90;;;;;;5066597;28;20112;-85
2021/09/29 12:49:29;;;;;;;3.28;1.63;;;13.30;99.90;;;;;;5069472;28;20070;-84
2021/09/29 12:52:03;;;;;;;5.10;2.17;;;13.30;99.90;;;;;;5072215;28;20028;-85
2021/09/29 12:54:30;;;;;;;3.00;1.92;;;13.40;99.90;;;;;;5058946;28;20024;-85
2021/09/29 12:56:56;;;;;;;2.72;1.77;;;13.40;99.90;;;;;;5054972;28;20040;-85
2021/09/29 12:59:21;;;;;;;5.68;2.03;;;13.50;99.90;;;;;;5070957;28;20032;-85
2021/09/29 13:01:47;;;;;;;4.80;1.95;;;13.40;99.90;;;;;;5067231;28;20537;-85
2021/09/29 13:04:12;;;;;;;4.10;2.20;;;13.40;99.90;;;;;;5056476;28;20438;-85
2021/09/29 13:06:38;;;;;;;4.53;1.80;;;13.30;99.90;;;;;;5062033;28;20038;-85
2021/09/29 13:09:04;;;;;;;2.80;1.10;;;13.30;99.90;;;;;;5057234;28;20031;-85
2021/09/29 13:11:29;;;;;;;3.72;2.17;;;13.20;99.70;;;;;;5067532;28;20046;-84
2021/09/29 13:13:55;;;;;;;3.25;1.23;;;12.90;99.80;;;;;;5067606;28;20028;-85
2021/09/29 13:16:20;;;;;;;2.55;0.80;;;12.70;99.50;;;;;;5067113;28;20027;-85
2021/09/29 13:21:52;;;;;;;4.38;0.70;;;12.10;99.00;;;;;;5031122;28;20035;-82
2021/09/29 13:37:36;;;;;;;6.75;0.70;;;11.50;99.00;;;;;;5089147;28;20051;-83
2021/09/29 13:40:02;;;;;;;2.22;0.52;;;11.30;98.90;;;;;;5053070;28;20456;-83
2021/09/29 13:42:33;;;;;;;1.85;0.55;;;11.30;98.80;;;;;;5071686;28;20059;-82
2021/09/29 13:44:59;;;;;;;1.60;0.80;;;11.30;99.30;;;;;;5066168;28;20386;-83
2021/09/29 13:47:25;;;;;;;1.27;0.57;;;11.50;99.40;;;;;;5067045;28;20027;-83
2021/09/29 13:49:50;;;;;;;2.50;0.50;;;11.50;99.40;;;;;;5066691;28;20565;-82
2021/09/29 13:52:20;;;;;;;2.80;0.45;;;11.60;99.10;;;;;;5070692;28;20035;-82
2021/09/29 13:54:46;;;;;;;2.47;0.70;;;11.70;99.30;;;;;;5045565;28;20368;-83
2021/09/29 13:57:19;;;;;;;0.75;0.40;;;11.80;99.30;;;;;;5054121;28;20069;-83
2021/09/29 14:29:47;;;;;;;1.42;0.55;;;12.70;99.30;;;;;;5077013;28;20882;-81
2021/09/29 14:32:19;;;;;;;2.40;1.50;;;12.70;99.00;;;;;;5051399;28;20074;-81
2021/09/29 14:34:44;;;;;;;1.75;0.70;;;12.70;98.60;;;;;;5069913;28;20549;-81
2021/09/29 14:37:11;;;;;;;3.20;0.70;;;12.70;98.70;;;;;;5072344;28;20165;-81
2021/09/29 14:39:37;;;;;;;0.47;0.35;;;12.70;98.80;;;;;;5068748;28;20094;-81
2021/09/29 14:42:03;;;;;;;1.17;0.50;;;12.70;98.70;;;;;;5076523;28;20133;-81
2021/09/29 14:44:29;;;;;;;3.08;0.60;;;12.80;98.80;;;;;;5054671;28;20027;-81
2021/09/29 14:46:55;;;;;;;4.55;0.90;;;12.80;98.80;;;;;;5072922;28;20490;-80
2021/09/29 14:49:21;;;;;;;2.05;0.70;;;12.90;98.60;;;;;;5052770;28;20039;-80
2021/09/29 14:51:46;;;;;;;1.67;0.55;;;13.00;98.80;;;;;;5070004;28;20035;-81
2021/09/29 14:54:12;;;;;;;0.95;0.45;;;13.20;98.60;;;;;;5070391;28;20034;-81
2021/09/29 14:56:37;;;;;;;2.00;0.75;;;13.20;98.80;;;;;;5058827;28;20161;-81
2021/09/29 14:59:04;;;;;;;2.83;0.70;;;13.30;98.90;;;;;;5070770;28;20039;-81
2021/09/29 15:01:30;;;;;;;4.05;0.35;;;13.30;98.80;;;;;;5065523;28;20108;-81
2021/09/29 15:03:57;;;;;;;2.22;0.80;;;13.30;98.50;;;;;;5056474;28;20043;-80
2021/09/29 15:06:23;;;;;;;1.40;0.47;;;13.30;98.20;;;;;;5069459;28;20114;-81
2021/09/29 15:08:49;;;;;;;2.25;0.80;;;13.20;98.10;;;;;;5049428;28;20047;-82
2021/09/29 15:11:15;;;;;;;2.70;0.80;;;13.10;98.10;;;;;;5069359;28;20237;-81
2021/09/29 15:13:48;;;;;;;1.70;0.60;;;13.00;98.10;;;;;;5054370;28;20079;-81
2021/09/29 15:16:22;;;;;;;1.40;0.40;;;13.00;98.00;;;;;;5059716;28;20038;-81
2021/09/29 15:24:44;;;;;;;1.83;0.63;;;12.80;97.80;;;;;;5092040;28;20244;-80
2021/09/29 15:32:27;;;;;;;2.25;0.63;;;12.70;97.40;;;;;;5089687;28;20035;-81
2021/09/29 15:48:39;;;;;;;4.70;0.60;;;13.30;96.10;;;;;;5071677;28;20042;-81
2021/09/29 15:51:09;;;;;;;3.30;1.27;;;13.30;95.90;;;;;;5071135;28;20490;-81
2021/09/29 15:53:54;;;;;;;4.63;0.43;;;13.40;95.80;;;;;;5070376;28;20024;-81
2021/09/29 16:01:37;;;;;;;2.28;0.73;;;13.30;96.10;;;;;;5091275;28;20610;-81
2021/09/29 16:06:45;;;;;;;1.70;0.55;;;13.40;96.00;;;;;;5076309;28;20051;-81
2021/09/29 16:12:12;;;;;;;3.08;0.52;;;13.20;96.10;;;;;;5090337;28;20494;-81